createdAt,value
2019-06-26T00:02:10.940Z,76.60
2019-06-26T00:06:16.684Z,81.20
2019-06-26T00:10:22.553Z,80.50
2019-06-26T00:14:29.610Z,81.10
2019-06-26T00:18:35.444Z,74.90
2019-06-26T00:22:41.247Z,77.50
2019-06-26T00:26:47.079Z,75.40
2019-06-26T00:30:52.809Z,75.20
2019-06-26T00:34:58.540Z,74.50
2019-06-26T00:39:07.475Z,79.70
2019-06-26T00:43:13.275Z,79.40
2019-06-26T00:47:20.096Z,79.00
2019-06-26T00:51:27.031Z,81.20
2019-06-26T00:55:32.831Z,77.00
2019-06-26T00:59:38.570Z,78.00
2019-06-26T01:03:44.270Z,77.50
2019-06-26T01:07:50.174Z,81.60
2019-06-26T01:11:56.033Z,77.70
2019-06-26T01:16:01.786Z,76.90
2019-06-26T01:20:10.271Z,79.90
2019-06-26T01:24:15.998Z,77.00
2019-06-26T01:28:21.706Z,77.70
2019-06-26T01:32:27.441Z,76.50
2019-06-26T01:36:33.442Z,76.80
2019-06-26T01:40:39.140Z,78.30
2019-06-26T01:44:44.866Z,79.00
2019-06-26T01:48:50.695Z,79.50
2019-06-26T01:52:56.642Z,77.70
2019-06-26T01:57:02.366Z,79.10
2019-06-26T02:01:08.175Z,78.60
2019-06-26T02:05:14.260Z,77.70
2019-06-26T02:09:20.007Z,77.20
2019-06-26T02:13:25.763Z,77.00
2019-06-26T02:17:31.511Z,77.10
2019-06-26T02:21:37.412Z,77.10
2019-06-26T02:25:43.198Z,77.00
2019-06-26T02:29:48.925Z,76.90
2019-06-26T02:33:54.724Z,77.80
2019-06-26T02:38:00.417Z,79.30
2019-06-26T02:42:06.483Z,81.60
2019-06-26T02:46:13.268Z,79.40
2019-06-26T02:50:19.184Z,78.30
2019-06-26T02:54:25.158Z,77.90
2019-06-26T02:58:30.979Z,77.50
2019-06-26T03:02:36.797Z,77.30
2019-06-26T03:06:42.552Z,77.70
2019-06-26T03:10:49.355Z,79.70
2019-06-26T03:15:08.192Z,81.00
2019-06-26T03:19:02.599Z,81.70
2019-06-26T03:23:08.331Z,80.10
2019-06-26T03:27:14.200Z,79.00
2019-06-26T03:31:23.358Z,78.40
2019-06-26T03:35:29.138Z,78.10
2019-06-26T03:39:34.913Z,78.00
2019-06-26T03:43:40.638Z,80.00
2019-06-26T03:47:46.360Z,79.90
2019-06-26T03:51:52.086Z,78.70
2019-06-26T03:55:57.896Z,77.80
2019-06-26T04:00:05.804Z,77.40
2019-06-26T04:04:11.852Z,77.20
2019-06-26T04:08:17.576Z,77.10
2019-06-26T04:12:23.301Z,77.00
2019-06-26T04:16:29.214Z,77.50
2019-06-26T04:20:35.058Z,76.80
2019-06-26T04:24:40.851Z,76.80
2019-06-26T04:28:46.577Z,76.90
2019-06-26T04:32:52.376Z,76.80
2019-06-26T04:36:58.141Z,76.60
2019-06-26T04:41:03.964Z,76.30
2019-06-26T04:45:11.288Z,76.20
2019-06-26T04:49:17.021Z,76.40
2019-06-26T04:53:22.750Z,76.30
2019-06-26T04:57:28.482Z,76.10
2019-06-26T05:01:35.189Z,76.00
2019-06-26T05:05:44.307Z,76.40
2019-06-26T05:09:48.319Z,75.60
2019-06-26T05:13:54.224Z,75.10
2019-06-26T05:17:59.942Z,75.10
2019-06-26T05:22:05.943Z,75.10
2019-06-26T05:26:11.667Z,75.10
2019-06-26T05:30:18.098Z,75.00
2019-06-26T05:34:23.846Z,74.90
2019-06-26T05:38:29.558Z,75.10
2019-06-26T05:42:35.362Z,75.30
2019-06-26T05:46:41.104Z,75.00
2019-06-26T05:50:46.942Z,75.80
2019-06-26T05:54:52.853Z,74.80
2019-06-26T05:58:58.726Z,74.10
2019-06-26T06:03:04.542Z,74.80
2019-06-26T06:07:10.271Z,73.80
2019-06-26T06:11:16.079Z,75.80
2019-06-26T06:15:21.879Z,73.30
2019-06-26T06:19:27.612Z,72.80
2019-06-26T06:23:33.395Z,72.20
2019-06-26T06:27:39.380Z,71.90
2019-06-26T06:31:45.269Z,73.60
2019-06-26T06:35:51.970Z,72.10
2019-06-26T06:39:57.823Z,74.20
2019-06-26T06:44:03.636Z,70.60
2019-06-26T06:48:09.394Z,73.00
2019-06-26T06:52:16.750Z,71.50
2019-06-26T06:56:24.288Z,68.70
2019-06-26T07:00:30.299Z,68.90
2019-06-26T07:04:36.136Z,69.00
2019-06-26T07:08:42.042Z,67.60
2019-06-26T07:12:48.220Z,69.40
2019-06-26T07:16:53.953Z,69.20
2019-06-26T07:20:59.935Z,68.80
2019-06-26T07:25:06.968Z,64.40
2019-06-26T07:29:12.769Z,64.10
2019-06-26T07:33:18.574Z,64.10
2019-06-26T07:37:24.283Z,64.80
2019-06-26T07:41:30.086Z,63.60
2019-06-26T07:45:35.946Z,63.00
2019-06-26T07:49:41.818Z,63.30
2019-06-26T07:53:47.545Z,62.90
2019-06-26T07:57:53.324Z,62.00
2019-06-26T08:01:59.115Z,62.10
2019-06-26T08:06:04.815Z,62.20
2019-06-26T08:10:11.016Z,62.00
2019-06-26T08:14:16.719Z,62.00
2019-06-26T08:18:23.540Z,61.90
2019-06-26T08:22:29.308Z,61.30
2019-06-26T08:26:35.123Z,61.00
2019-06-26T08:30:40.976Z,60.00
2019-06-26T08:34:46.691Z,59.60
2019-06-26T08:38:52.491Z,59.20
2019-06-26T08:42:58.332Z,58.10
2019-06-26T08:47:04.163Z,57.50
2019-06-26T08:51:09.902Z,56.70
2019-06-26T08:55:17.090Z,57.40
2019-06-26T08:59:22.857Z,56.80
2019-06-26T09:03:28.615Z,56.70
2019-06-26T09:07:34.518Z,57.50
2019-06-26T09:11:40.339Z,55.70
2019-06-26T09:15:49.757Z,53.80
2019-06-26T09:19:54.562Z,53.80
2019-06-26T09:24:00.376Z,53.80
2019-06-26T09:28:06.883Z,54.10
2019-06-26T09:32:12.710Z,55.50
2019-06-26T09:36:18.659Z,53.70
2019-06-26T09:40:24.570Z,52.60
2019-06-26T09:44:30.291Z,53.60
2019-06-26T09:48:51.575Z,53.80
2019-06-26T09:52:43.835Z,51.40
2019-06-26T09:56:49.574Z,52.10
2019-06-26T10:00:55.330Z,51.60
2019-06-26T10:05:01.129Z,51.00
2019-06-26T10:09:09.176Z,50.40
2019-06-26T10:13:14.957Z,50.90
2019-06-26T10:17:20.804Z,50.30
2019-06-26T10:21:38.564Z,49.60
2019-06-26T10:25:45.975Z,48.80
2019-06-26T10:29:51.695Z,47.80
2019-06-26T10:33:57.487Z,48.00
2019-06-26T10:38:03.397Z,48.30
2019-06-26T10:42:09.074Z,48.70
2019-06-26T10:46:15.381Z,47.70
2019-06-26T10:50:21.227Z,46.60
2019-06-26T10:54:26.981Z,47.30
2019-06-26T10:58:32.663Z,45.60
2019-06-26T11:02:39.659Z,46.20
2019-06-26T11:06:45.505Z,45.30
2019-06-26T11:10:51.252Z,45.10
2019-06-26T11:14:56.941Z,45.60
2019-06-26T11:19:02.890Z,45.80
2019-06-26T11:23:08.593Z,46.50
2019-06-26T11:27:14.326Z,44.60
2019-06-26T11:31:20.092Z,42.20
2019-06-26T11:35:25.940Z,43.20
2019-06-26T11:39:32.114Z,43.80
2019-06-26T11:43:37.915Z,45.10
2019-06-26T11:47:45.917Z,46.80
2019-06-26T11:51:51.171Z,45.90
2019-06-26T11:55:57.024Z,44.20
2019-06-26T12:00:05.753Z,44.60
2019-06-26T12:04:11.647Z,43.90
2019-06-26T12:08:18.570Z,43.50
2019-06-26T12:12:24.401Z,44.80
2019-06-26T12:16:30.194Z,42.90
2019-06-26T12:20:35.932Z,42.90
2019-06-26T12:24:41.671Z,42.80
2019-06-26T12:28:47.832Z,43.70
2019-06-26T12:33:02.852Z,43.60
2019-06-26T12:37:00.993Z,43.00
2019-06-26T12:41:07.005Z,43.80
2019-06-26T12:45:13.305Z,44.00
2019-06-26T12:49:19.038Z,42.90
2019-06-26T12:53:25.196Z,40.80
2019-06-26T12:57:31.155Z,41.20
2019-06-26T13:01:36.932Z,41.70
2019-06-26T13:05:42.747Z,42.70
2019-06-26T13:09:48.524Z,42.20
2019-06-26T13:14:02.469Z,41.50
2019-06-26T13:18:01.811Z,40.20
2019-06-26T13:22:07.761Z,41.80
2019-06-26T13:26:13.445Z,40.80
2019-06-26T13:30:23.908Z,41.20
2019-06-26T13:34:29.685Z,41.40
2019-06-26T13:38:36.388Z,42.80
2019-06-26T13:42:42.084Z,43.50
2019-06-26T13:46:48.913Z,43.70
2019-06-26T13:51:08.312Z,43.20
2019-06-26T13:55:02.059Z,44.20
2019-06-26T13:59:07.903Z,44.10
2019-06-26T14:03:13.606Z,44.50
2019-06-26T14:07:19.418Z,44.50
2019-06-26T14:11:25.329Z,44.30
2019-06-26T14:15:31.153Z,44.00
2019-06-26T14:19:36.882Z,44.70
2019-06-26T14:23:42.655Z,45.30
2019-06-26T14:27:48.577Z,46.40
2019-06-26T14:31:54.337Z,47.80
2019-06-26T14:36:00.158Z,48.80
2019-06-26T14:40:09.656Z,49.20
2019-06-26T14:44:15.410Z,49.50
2019-06-26T14:48:21.320Z,49.20
2019-06-26T14:52:27.079Z,48.50
2019-06-26T14:56:32.819Z,49.40
2019-06-26T15:00:38.858Z,49.60
2019-06-26T15:04:46.186Z,49.50
2019-06-26T15:08:52.136Z,49.90
2019-06-26T15:12:57.886Z,49.30
2019-06-26T15:17:03.617Z,49.00
2019-06-26T15:21:09.455Z,48.60
2019-06-26T15:25:17.161Z,48.80
2019-06-26T15:29:22.904Z,48.30
2019-06-26T15:33:28.653Z,49.40
2019-06-26T15:37:35.517Z,50.30
2019-06-26T15:41:41.264Z,50.80
2019-06-26T15:45:47.039Z,51.10
2019-06-26T15:49:52.847Z,51.80
2019-06-26T15:54:00.034Z,51.70
2019-06-26T15:58:06.055Z,52.10
2019-06-26T16:02:11.923Z,52.00
2019-06-26T16:06:17.675Z,52.50
2019-06-26T16:10:23.417Z,53.50
2019-06-26T16:14:29.411Z,53.40
2019-06-26T16:18:36.864Z,53.10
2019-06-26T16:22:42.842Z,53.00
2019-06-26T16:26:49.884Z,52.50
2019-06-26T16:30:55.710Z,52.60
2019-06-26T16:35:01.482Z,53.10
2019-06-26T16:39:09.346Z,53.80
2019-06-26T16:43:15.063Z,54.70
2019-06-26T16:47:20.819Z,55.30
2019-06-26T16:51:26.584Z,54.20
2019-06-26T16:55:32.421Z,54.80
2019-06-26T16:59:38.178Z,55.60
2019-06-26T17:03:44.882Z,56.00
2019-06-26T17:07:50.731Z,53.80
2019-06-26T17:11:56.607Z,54.20
2019-06-26T17:16:04.036Z,54.20
2019-06-26T17:20:10.386Z,55.80
2019-06-26T17:24:16.099Z,54.80
2019-06-26T17:28:21.848Z,55.00
2019-06-26T17:32:27.541Z,55.60
2019-06-26T17:36:33.432Z,55.50
2019-06-26T17:40:40.139Z,55.40
2019-06-26T17:44:45.888Z,56.20
2019-06-26T17:48:51.848Z,54.80
2019-06-26T17:52:57.646Z,54.40
2019-06-26T17:57:03.369Z,54.20
2019-06-26T18:01:09.149Z,53.80
2019-06-26T18:05:15.047Z,54.50
2019-06-26T18:09:20.789Z,54.30
2019-06-26T18:13:26.536Z,55.50
2019-06-26T18:17:32.352Z,55.30
2019-06-26T18:21:38.120Z,55.00
2019-06-26T18:25:53.600Z,55.20
2019-06-26T18:29:51.875Z,55.40
2019-06-26T18:33:57.861Z,56.60
2019-06-26T18:38:03.564Z,55.50
2019-06-26T18:42:09.307Z,56.00
2019-06-26T18:46:15.322Z,54.70
2019-06-26T18:50:21.095Z,55.60
2019-06-26T18:54:26.853Z,56.40
2019-06-26T18:58:32.593Z,55.50
2019-06-26T19:02:38.448Z,55.50
2019-06-26T19:06:44.193Z,55.50
2019-06-26T19:10:49.931Z,55.80
2019-06-26T19:14:55.865Z,57.80
2019-06-26T19:19:01.631Z,57.20
2019-06-26T19:23:07.366Z,56.90
2019-06-26T19:27:13.135Z,56.50
2019-06-26T19:31:18.973Z,57.00
2019-06-26T19:35:24.876Z,58.90
2019-06-26T19:39:30.680Z,58.80
2019-06-26T19:43:36.471Z,57.90
2019-06-26T19:47:42.473Z,58.40
2019-06-26T19:51:48.201Z,58.30
2019-06-26T19:55:53.957Z,58.20
2019-06-26T19:59:59.685Z,58.30
2019-06-26T20:04:05.495Z,58.60
2019-06-26T20:08:11.351Z,58.50
2019-06-26T20:12:17.181Z,58.60
2019-06-26T20:16:22.929Z,58.50
2019-06-26T20:20:28.682Z,60.40
2019-06-26T20:24:44.043Z,58.90
2019-06-26T20:28:41.833Z,59.00
2019-06-26T20:32:47.567Z,59.30
2019-06-26T20:36:53.319Z,59.30
2019-06-26T20:40:59.149Z,59.30
2019-06-26T20:45:07.822Z,59.30
2019-06-26T20:49:13.599Z,60.60
2019-06-26T20:53:19.414Z,59.90
2019-06-26T20:57:25.234Z,59.70
2019-06-26T21:01:31.018Z,60.00
2019-06-26T21:05:36.749Z,60.80
2019-06-26T21:09:42.525Z,60.60
2019-06-26T21:13:48.308Z,60.80
2019-06-26T21:17:54.000Z,61.40
2019-06-26T21:21:59.847Z,61.10
2019-06-26T21:26:05.654Z,61.20
2019-06-26T21:30:12.780Z,61.50
2019-06-26T21:34:18.609Z,61.90
2019-06-26T21:38:24.354Z,61.90
2019-06-26T21:42:30.072Z,62.00
2019-06-26T21:46:35.961Z,64.00
2019-06-26T21:50:41.749Z,63.30
2019-06-26T21:54:47.488Z,63.80
2019-06-26T21:59:11.138Z,63.30
2019-06-26T22:03:34.723Z,63.20
2019-06-26T22:07:45.077Z,63.20
2019-06-26T22:11:52.455Z,63.80
2019-06-26T22:15:58.350Z,64.00
2019-06-26T22:20:09.771Z,63.70
2019-06-26T22:24:13.952Z,64.00
2019-06-26T22:28:19.920Z,63.80
2019-06-26T22:32:25.677Z,66.10
2019-06-26T22:36:31.565Z,64.90
2019-06-26T22:40:37.340Z,64.20
2019-06-26T22:44:43.379Z,64.10
2019-06-26T22:48:49.240Z,64.60
2019-06-26T22:52:55.058Z,65.90
2019-06-26T22:57:01.763Z,66.00
2019-06-26T23:01:07.584Z,66.00
2019-06-26T23:05:13.744Z,66.80
2019-06-26T23:09:19.654Z,69.00
2019-06-26T23:13:25.391Z,66.20
2019-06-26T23:17:32.145Z,65.30
2019-06-26T23:21:37.891Z,67.30
2019-06-26T23:25:43.615Z,70.30
2019-06-26T23:29:49.345Z,70.60
2019-06-26T23:33:55.102Z,67.40
2019-06-26T23:38:01.063Z,66.80
2019-06-26T23:42:06.788Z,66.60
2019-06-26T23:46:12.552Z,66.90
2019-06-26T23:50:31.269Z,67.50
2019-06-26T23:54:37.010Z,67.70
2019-06-26T23:58:42.741Z,73.40
